Time;durP1;ratioP1;P1;durP2;ratioP2;P2;SDS_P1;SDS_P2;PMS_P1;PMS_P2;Temp;Humidity;BMP_temperature;BMP_pressure;BME280_temperature;BME280_humidity;BME280_pressure;Samples;Min_cycle;Max_cycle;Signal;HPM_P1;HPM_P2
2022/04/09 00:02:04;;;;;;;0.57;0.50;;;0.90;99.90;;;;;;5080974;28;20752;-84
2022/04/09 00:04:31;;;;;;;0.40;0.30;;;0.90;99.90;;;;;;5058325;28;20207;-85
2022/04/09 00:06:59;;;;;;;0.50;0.40;;;0.90;99.90;;;;;;5067501;28;20196;-84
2022/04/09 00:09:28;;;;;;;0.40;0.30;;;0.90;99.90;;;;;;5068900;28;20616;-85
2022/04/09 00:11:58;;;;;;;0.50;0.50;;;0.90;99.90;;;;;;5068976;28;20199;-85
2022/04/09 00:14:26;;;;;;;0.50;0.50;;;0.90;99.90;;;;;;5069059;28;20223;-84
2022/04/09 00:16:54;;;;;;;0.70;0.70;;;1.00;99.90;;;;;;5068309;28;20223;-85
2022/04/09 00:19:21;;;;;;;0.50;0.50;;;1.00;99.90;;;;;;5069200;28;20294;-83
2022/04/09 00:21:48;;;;;;;3.05;0.60;;;1.00;99.90;;;;;;5069091;28;20238;-85
2022/04/09 00:24:16;;;;;;;0.38;0.38;;;1.00;99.90;;;;;;5068824;28;20257;-85
2022/04/09 00:26:44;;;;;;;0.70;0.70;;;1.00;99.90;;;;;;5068109;28;20560;-85
2022/04/09 00:29:14;;;;;;;0.60;0.60;;;1.10;99.90;;;;;;5068565;28;20207;-85
2022/04/09 00:31:41;;;;;;;0.70;0.68;;;1.10;99.90;;;;;;5068932;28;20196;-85
2022/04/09 00:34:10;;;;;;;1.17;1.08;;;1.00;99.90;;;;;;5067735;28;20207;-85
2022/04/09 00:36:37;;;;;;;1.20;1.10;;;1.00;99.90;;;;;;5068231;28;20223;-85
2022/04/09 00:39:04;;;;;;;0.93;0.93;;;1.10;99.90;;;;;;5068718;28;20211;-85
2022/04/09 00:41:32;;;;;;;0.98;0.98;;;1.00;99.90;;;;;;5053693;28;20208;-85
2022/04/09 00:43:59;;;;;;;0.90;0.90;;;1.10;99.90;;;;;;5048455;28;20232;-85
2022/04/09 00:46:27;;;;;;;0.85;0.85;;;0.90;99.90;;;;;;5047914;28;20253;-86
2022/04/09 00:48:54;;;;;;;0.82;0.82;;;1.00;99.90;;;;;;5048651;28;20233;-86
2022/04/09 00:51:21;;;;;;;0.60;0.60;;;1.10;99.90;;;;;;5048788;28;20601;-86
2022/04/09 00:53:53;;;;;;;0.90;0.90;;;1.00;99.90;;;;;;5048778;28;20208;-86
2022/04/09 00:56:22;;;;;;;0.70;0.70;;;1.10;99.90;;;;;;5047903;28;20222;-86
2022/04/09 00:58:55;;;;;;;1.02;0.82;;;1.00;99.90;;;;;;5048752;28;20290;-86
2022/04/09 01:01:24;;;;;;;1.00;0.60;;;1.00;99.90;;;;;;5049247;28;20206;-86
2022/04/09 01:03:53;;;;;;;0.73;0.73;;;1.00;99.90;;;;;;5050275;28;20236;-86
2022/04/09 01:06:20;;;;;;;0.70;0.70;;;1.00;99.90;;;;;;5067974;28;20207;-87
2022/04/09 01:08:47;;;;;;;0.70;0.70;;;1.10;99.90;;;;;;5068095;28;20206;-86
2022/04/09 01:11:15;;;;;;;0.65;0.65;;;1.10;99.90;;;;;;5068788;28;20844;-86
2022/04/09 01:13:45;;;;;;;0.77;0.77;;;1.10;99.90;;;;;;5068059;28;20203;-86
2022/04/09 01:16:13;;;;;;;0.88;0.88;;;1.10;99.90;;;;;;5067840;28;20215;-86
2022/04/09 01:18:41;;;;;;;1.10;1.10;;;1.10;99.90;;;;;;5071933;28;20203;-86
2022/04/09 01:21:09;;;;;;;1.25;0.70;;;1.10;99.90;;;;;;5072580;28;20218;-87
2022/04/09 01:23:40;;;;;;;1.00;0.90;;;1.20;99.90;;;;;;5072374;28;20203;-88
2022/04/09 01:26:09;;;;;;;1.13;0.98;;;1.10;99.90;;;;;;5071705;28;20210;-87
2022/04/09 01:28:37;;;;;;;1.30;1.20;;;1.10;99.90;;;;;;5072446;28;20597;-87
2022/04/09 01:31:04;;;;;;;1.23;1.13;;;1.10;99.90;;;;;;5072223;28;20289;-87
2022/04/09 01:33:32;;;;;;;1.10;1.00;;;1.00;99.90;;;;;;5072340;28;20217;-87
2022/04/09 01:35:59;;;;;;;0.88;0.88;;;1.10;99.90;;;;;;5069857;28;20199;-86
2022/04/09 01:38:27;;;;;;;1.70;1.60;;;1.10;99.90;;;;;;5071961;28;20203;-86
2022/04/09 01:40:55;;;;;;;1.92;1.67;;;1.20;99.90;;;;;;5060048;28;20200;-86
2022/04/09 01:43:23;;;;;;;1.55;1.45;;;1.20;99.90;;;;;;5051985;28;20208;-86
2022/04/09 01:45:50;;;;;;;3.88;1.65;;;1.10;99.90;;;;;;5051463;28;20204;-86
2022/04/09 01:48:17;;;;;;;1.83;1.65;;;;;;;;;;5051732;28;20200;-86
2022/04/09 01:50:44;;;;;;;1.60;1.50;;;1.10;99.90;;;;;;5052002;28;20572;-86
2022/04/09 01:53:11;;;;;;;1.27;1.17;;;1.20;99.90;;;;;;5052000;28;20243;-86
2022/04/09 01:55:39;;;;;;;1.50;1.40;;;;;;;;;;5051364;28;20641;-86
2022/04/09 01:58:07;;;;;;;2.22;2.03;;;1.10;99.90;;;;;;5051701;28;20270;-86
2022/04/09 02:00:34;;;;;;;3.10;2.28;;;1.10;99.90;;;;;;5051672;28;20303;-86
2022/04/09 02:03:01;;;;;;;2.40;2.20;;;;;;;;;;5051263;28;20671;-86
2022/04/09 02:05:28;;;;;;;3.20;2.20;;;1.20;99.90;;;;;;5068201;28;20203;-86
2022/04/09 02:07:56;;;;;;;3.25;2.47;;;;;;;;;;5071393;28;20214;-86
2022/04/09 02:10:23;;;;;;;3.15;2.58;;;1.30;99.90;;;;;;5071454;28;20207;-86
2022/04/09 02:12:50;;;;;;;3.10;2.90;;;;;;;;;;5071519;28;20272;-86
2022/04/09 02:15:19;;;;;;;3.80;3.10;;;1.30;99.90;;;;;;5070571;28;20207;-87
2022/04/09 02:17:46;;;;;;;4.43;3.40;;;1.30;99.90;;;;;;5071068;28;20295;-87
2022/04/09 02:20:14;;;;;;;3.30;3.00;;;1.30;99.90;;;;;;5071536;28;20695;-86
2022/04/09 02:22:42;;;;;;;3.83;2.97;;;1.30;99.90;;;;;;5071229;28;20234;-86
2022/04/09 02:25:12;;;;;;;4.13;3.13;;;1.30;99.90;;;;;;5070566;28;20264;-87
2022/04/09 02:27:39;;;;;;;3.90;3.22;;;;;;;;;;5070947;28;20257;-86
2022/04/09 02:30:09;;;;;;;4.28;3.22;;;1.30;99.90;;;;;;5069681;28;20670;-86
2022/04/09 02:32:44;;;;;;;3.88;3.50;;;1.20;99.90;;;;;;5071226;28;20211;-86
2022/04/09 02:35:12;;;;;;;7.22;4.20;;;1.20;99.90;;;;;;5069550;28;20673;-86
2022/04/09 02:37:39;;;;;;;5.25;3.83;;;1.20;99.90;;;;;;5070841;28;20314;-87
2022/04/09 02:40:07;;;;;;;3.40;2.85;;;1.20;99.90;;;;;;5066972;28;20208;-86
2022/04/09 02:42:36;;;;;;;3.53;3.10;;;1.20;99.90;;;;;;5050890;28;20235;-86
2022/04/09 02:45:04;;;;;;;3.05;2.85;;;1.20;99.90;;;;;;5050759;28;20219;-86
2022/04/09 02:47:31;;;;;;;3.92;3.50;;;;;;;;;;5050463;28;20663;-86
2022/04/09 02:50:00;;;;;;;3.45;2.80;;;1.20;99.90;;;;;;5050915;28;20203;-86
2022/04/09 02:52:28;;;;;;;4.25;3.35;;;;;;;;;;5050515;28;20700;-86
2022/04/09 02:54:55;;;;;;;3.97;3.38;;;1.20;99.90;;;;;;5050726;28;20212;-86
2022/04/09 02:57:23;;;;;;;4.03;3.33;;;1.80;99.90;;;;;;5050246;28;20228;-87
2022/04/09 02:59:50;;;;;;;3.30;2.88;;;1.20;99.90;;;;;;5050908;28;20210;-86
2022/04/09 03:02:17;;;;;;;3.75;2.92;;;1.20;99.90;;;;;;5050961;28;20223;-86
2022/04/09 03:04:44;;;;;;;3.33;2.92;;;;;;;;;;5062008;28;20273;-87
2022/04/09 03:07:12;;;;;;;4.07;3.55;;;1.20;99.90;;;;;;5069678;28;20277;-86
2022/04/09 03:09:39;;;;;;;4.10;3.70;;;;;;;;;;5070347;28;20689;-86
2022/04/09 03:12:07;;;;;;;4.18;3.22;;;1.20;99.90;;;;;;5070430;28;20257;-87
2022/04/09 03:14:34;;;;;;;2.92;2.65;;;;;;;;;;5070544;28;20207;-86
2022/04/09 03:17:01;;;;;;;3.35;3.03;;;;;;;;;;5069579;28;20219;-87
2022/04/09 03:19:28;;;;;;;4.15;2.97;;;;;;;;;;5070585;28;20233;-87
2022/04/09 03:21:55;;;;;;;4.30;3.95;;;1.30;99.90;;;;;;5070686;28;20264;-87
2022/04/09 03:24:23;;;;;;;4.10;3.03;;;1.30;99.90;;;;;;5070476;28;20699;-86
2022/04/09 03:26:51;;;;;;;4.95;3.38;;;;;;;;;;5069278;28;20245;-86
2022/04/09 03:29:18;;;;;;;3.47;3.17;;;1.30;99.90;;;;;;5070279;28;20211;-87
2022/04/09 03:31:44;;;;;;;4.00;3.25;;;1.30;99.90;;;;;;5070065;28;20765;-86
2022/04/09 03:34:12;;;;;;;3.58;3.28;;;;;;;;;;5068882;28;20678;-86
2022/04/09 03:36:39;;;;;;;5.43;4.65;;;1.30;99.90;;;;;;5069179;28;20199;-86
2022/04/09 03:39:06;;;;;;;5.70;4.72;;;1.30;99.90;;;;;;5069577;28;20306;-87
2022/04/09 03:41:35;;;;;;;7.38;4.88;;;1.40;99.90;;;;;;5053340;28;20218;-86
2022/04/09 03:44:02;;;;;;;5.72;4.30;;;1.70;99.90;;;;;;5049767;28;20204;-87
2022/04/09 03:46:29;;;;;;;5.70;4.18;;;2.00;99.90;;;;;;5049671;28;20318;-87
2022/04/09 03:48:56;;;;;;;6.28;4.80;;;2.20;99.90;;;;;;5049701;28;20215;-86
2022/04/09 03:51:23;;;;;;;6.10;4.47;;;1.50;99.90;;;;;;5050056;28;20281;-86
2022/04/09 03:53:49;;;;;;;5.80;3.75;;;1.50;99.90;;;;;;5049908;28;20212;-85
2022/04/09 03:56:17;;;;;;;6.35;4.65;;;;;;;;;;5049365;28;20250;-86
2022/04/09 03:58:47;;;;;;;7.57;4.68;;;1.50;99.90;;;;;;5049544;28;20289;-86
2022/04/09 04:01:14;;;;;;;4.75;4.35;;;1.50;99.90;;;;;;5049570;28;20212;-86
2022/04/09 04:03:41;;;;;;;7.78;5.88;;;;;;;;;;5051772;28;20254;-85
2022/04/09 04:06:08;;;;;;;12.65;6.43;;;1.50;99.90;;;;;;5069926;28;20321;-86
2022/04/09 04:08:35;;;;;;;9.15;6.80;;;;;;;;;;5070634;28;20207;-86
2022/04/09 04:11:03;;;;;;;9.55;6.68;;;;;;;;;;5069901;28;20211;-86
2022/04/09 04:13:30;;;;;;;9.88;7.57;;;1.60;99.90;;;;;;5069024;28;20218;-85
2022/04/09 04:15:59;;;;;;;12.05;7.75;;;1.40;99.90;;;;;;5068526;28;20229;-86
2022/04/09 04:18:26;;;;;;;10.35;8.68;;;1.50;99.90;;;;;;5068723;28;20223;-86
2022/04/09 04:20:53;;;;;;;11.75;9.25;;;;;;;;;;5069005;28;20252;-87
2022/04/09 04:23:20;;;;;;;14.35;8.57;;;1.50;99.90;;;;;;5068953;28;20207;-85
2022/04/09 04:25:47;;;;;;;14.77;10.15;;;;;;;;;;5068429;28;20202;-86
2022/04/09 04:28:14;;;;;;;14.55;9.77;;;1.50;99.90;;;;;;5069112;28;20211;-86
2022/04/09 04:30:41;;;;;;;12.85;9.60;;;2.80;99.90;;;;;;5068837;28;20284;-86
2022/04/09 04:33:10;;;;;;;11.52;9.27;;;1.50;99.90;;;;;;5069430;28;20660;-86
2022/04/09 04:35:37;;;;;;;15.18;9.32;;;1.50;99.90;;;;;;5066849;28;20621;-86
2022/04/09 04:38:03;;;;;;;14.85;10.50;;;1.50;99.90;;;;;;5069116;28;20239;-84
2022/04/09 04:40:30;;;;;;;15.07;10.98;;;1.50;99.90;;;;;;5068665;28;20306;-86
2022/04/09 04:42:58;;;;;;;18.70;12.45;;;;;;;;;;5068458;28;20309;-85
2022/04/09 04:45:25;;;;;;;16.88;10.55;;;1.40;99.90;;;;;;5067888;28;20264;-86
2022/04/09 04:47:52;;;;;;;14.10;10.70;;;;;;;;;;5068849;28;20207;-86
2022/04/09 04:50:20;;;;;;;16.90;11.18;;;1.40;99.90;;;;;;5069058;28;20206;-87
2022/04/09 04:52:47;;;;;;;16.45;10.43;;;1.40;99.90;;;;;;5067951;28;20195;-86
2022/04/09 04:55:15;;;;;;;13.20;9.80;;;;;;;;;;5068213;28;20288;-86
2022/04/09 04:57:43;;;;;;;15.20;10.95;;;1.40;99.90;;;;;;5068157;28;20243;-86
2022/04/09 05:00:11;;;;;;;21.35;12.52;;;1.40;99.90;;;;;;5068803;28;20662;-86
2022/04/09 05:02:38;;;;;;;18.75;10.98;;;1.40;99.90;;;;;;5068357;28;20739;-86
2022/04/09 05:05:06;;;;;;;19.35;12.80;;;1.40;99.90;;;;;;5068275;28;20248;-86
2022/04/09 05:07:42;;;;;;;13.02;10.10;;;1.40;99.90;;;;;;5069219;28;20246;-86
2022/04/09 05:10:10;;;;;;;18.35;10.88;;;1.70;99.90;;;;;;5068669;28;20256;-86
2022/04/09 05:12:38;;;;;;;13.43;9.25;;;1.40;99.90;;;;;;5068237;28;20203;-85
2022/04/09 05:15:06;;;;;;;15.82;11.40;;;1.50;99.90;;;;;;5068311;28;20264;-87
2022/04/09 05:17:33;;;;;;;14.45;9.20;;;1.40;99.90;;;;;;5068442;28;20261;-86
2022/04/09 05:20:01;;;;;;;15.88;10.05;;;;;;;;;;5068468;28;20230;-86
2022/04/09 05:22:28;;;;;;;12.45;9.00;;;1.50;99.90;;;;;;5068464;28;20674;-86
2022/04/09 05:24:56;;;;;;;14.00;10.48;;;1.50;99.90;;;;;;5067843;28;20670;-86
2022/04/09 05:27:24;;;;;;;17.33;11.55;;;1.50;99.90;;;;;;5068107;28;20211;-86
2022/04/09 05:29:51;;;;;;;11.77;9.10;;;1.50;99.90;;;;;;5068129;28;20316;-86
2022/04/09 05:32:18;;;;;;;13.52;9.93;;;1.50;99.90;;;;;;5068684;28;20578;-86
2022/04/09 05:34:46;;;;;;;13.48;9.63;;;1.50;99.90;;;;;;5066795;28;20635;-86
2022/04/09 05:37:13;;;;;;;18.23;11.43;;;1.60;99.90;;;;;;5067410;28;20641;-86
2022/04/09 05:39:40;;;;;;;15.93;9.75;;;1.70;99.90;;;;;;5068026;28;20199;-86
2022/04/09 05:42:09;;;;;;;15.88;10.85;;;1.70;99.90;;;;;;5068089;28;20731;-86
2022/04/09 05:44:35;;;;;;;13.02;9.23;;;1.70;99.90;;;;;;5068026;28;20211;-85
2022/04/09 05:47:02;;;;;;;23.58;10.63;;;1.70;99.90;;;;;;5067662;28;20261;-85
2022/04/09 05:49:29;;;;;;;18.13;10.48;;;1.80;99.90;;;;;;5068021;28;20264;-86
2022/04/09 05:51:57;;;;;;;16.17;10.50;;;1.80;99.90;;;;;;5067942;28;20686;-86
2022/04/09 05:54:24;;;;;;;18.40;10.40;;;1.80;99.90;;;;;;5068242;28;20261;-85
2022/04/09 05:56:51;;;;;;;14.57;9.93;;;1.90;99.90;;;;;;5067344;28;20666;-85
2022/04/09 05:59:19;;;;;;;13.45;11.13;;;1.80;99.90;;;;;;5067917;28;20227;-85
2022/04/09 06:01:46;;;;;;;20.55;10.40;;;1.80;99.90;;;;;;5068296;28;20292;-86
2022/04/09 06:04:14;;;;;;;16.02;11.43;;;1.80;99.90;;;;;;5070591;28;20203;-86
2022/04/09 06:06:41;;;;;;;14.43;10.23;;;1.90;99.90;;;;;;5071186;28;20214;-86
2022/04/09 06:09:07;;;;;;;13.32;9.80;;;1.90;99.90;;;;;;5071962;28;20238;-86
2022/04/09 06:11:34;;;;;;;14.00;9.00;;;1.90;99.90;;;;;;5071815;28;20233;-86
2022/04/09 06:14:01;;;;;;;15.93;10.75;;;2.00;99.90;;;;;;5071445;28;20602;-85
2022/04/09 06:16:30;;;;;;;9.50;8.35;;;1.90;99.90;;;;;;5071274;28;20636;-87
2022/04/09 06:18:58;;;;;;;11.90;9.23;;;1.90;99.90;;;;;;5070953;28;20222;-88
2022/04/09 06:21:27;;;;;;;13.20;8.43;;;1.90;99.90;;;;;;5071415;28;20241;-86
2022/04/09 06:23:54;;;;;;;11.15;8.70;;;2.60;99.90;;;;;;5071624;28;20279;-86
2022/04/09 06:26:21;;;;;;;11.70;7.50;;;1.90;99.90;;;;;;5071139;28;20635;-85
2022/04/09 06:28:47;;;;;;;13.25;9.88;;;1.90;99.90;;;;;;5070970;28;20667;-87
2022/04/09 06:31:14;;;;;;;17.80;8.48;;;2.00;99.90;;;;;;5071144;28;20292;-86
2022/04/09 06:33:42;;;;;;;13.98;8.77;;;2.10;99.90;;;;;;5070916;28;20292;-86
2022/04/09 06:36:10;;;;;;;14.35;7.85;;;2.00;99.90;;;;;;5069686;28;20293;-87
2022/04/09 06:38:36;;;;;;;19.67;10.60;;;2.10;99.90;;;;;;5071147;28;20716;-86
2022/04/09 06:41:03;;;;;;;12.40;9.07;;;2.10;99.90;;;;;;5059020;28;20242;-87
2022/04/09 06:43:31;;;;;;;19.20;10.90;;;2.20;99.90;;;;;;5051065;28;20235;-87
2022/04/09 06:45:58;;;;;;;11.70;9.18;;;2.30;99.90;;;;;;5050294;28;20212;-87
2022/04/09 06:48:24;;;;;;;11.93;9.35;;;2.40;99.90;;;;;;5050416;28;20253;-87
2022/04/09 06:50:53;;;;;;;15.38;9.73;;;2.50;99.90;;;;;;5050860;28;20269;-86
2022/04/09 06:53:20;;;;;;;12.25;8.90;;;2.50;99.90;;;;;;5050610;28;20215;-87
2022/04/09 06:55:47;;;;;;;13.52;10.23;;;2.60;99.90;;;;;;5050105;28;20675;-87
2022/04/09 06:58:13;;;;;;;15.95;10.02;;;2.50;99.90;;;;;;5050657;28;20315;-86
2022/04/09 07:00:40;;;;;;;12.20;8.65;;;2.60;99.90;;;;;;5050287;28;20684;-86
2022/04/09 07:03:07;;;;;;;11.52;8.63;;;2.60;99.90;;;;;;5050268;28;20307;-85
2022/04/09 07:05:34;;;;;;;12.68;9.30;;;2.60;99.90;;;;;;5068203;28;20225;-85
2022/04/09 07:08:03;;;;;;;11.20;9.68;;;2.60;99.90;;;;;;5070876;28;20534;-87
2022/04/09 07:10:30;;;;;;;13.88;10.48;;;2.60;99.90;;;;;;5070571;28;20204;-86
2022/04/09 07:13:00;;;;;;;11.73;9.32;;;2.70;99.90;;;;;;5070627;28;20257;-87
2022/04/09 07:15:27;;;;;;;13.38;10.02;;;2.80;99.90;;;;;;5069000;28;20294;-87
2022/04/09 07:17:55;;;;;;;11.75;8.20;;;2.80;99.90;;;;;;5070742;28;20306;-86
2022/04/09 07:20:22;;;;;;;16.58;9.65;;;2.90;99.90;;;;;;5070875;28;20541;-86
2022/04/09 07:22:49;;;;;;;14.10;8.70;;;2.90;99.90;;;;;;5070482;28;20210;-85
2022/04/09 07:25:18;;;;;;;10.93;9.23;;;2.90;99.90;;;;;;5070788;28;20238;-86
2022/04/09 07:27:46;;;;;;;10.50;8.55;;;2.90;99.90;;;;;;5071038;28;20203;-86
2022/04/09 07:30:15;;;;;;;8.48;7.30;;;2.90;99.90;;;;;;5070089;28;20207;-85
2022/04/09 07:32:42;;;;;;;13.93;8.38;;;3.00;99.90;;;;;;5069899;28;20239;-85
2022/04/09 07:35:10;;;;;;;8.57;7.35;;;3.00;99.90;;;;;;5068498;28;20268;-86
2022/04/09 07:37:41;;;;;;;12.40;8.90;;;3.10;99.90;;;;;;5070199;28;20242;-86
2022/04/09 07:40:09;;;;;;;13.95;8.60;;;3.30;99.90;;;;;;5069313;28;20252;-86
2022/04/09 07:42:38;;;;;;;7.85;6.53;;;3.30;99.90;;;;;;5069925;28;20471;-87
2022/04/09 07:45:05;;;;;;;13.88;8.15;;;3.40;99.90;;;;;;5069449;28;20215;-86
2022/04/09 07:47:33;;;;;;;15.05;8.25;;;3.50;99.90;;;;;;5069440;28;20203;-87
2022/04/09 07:50:00;;;;;;;9.60;6.35;;;3.50;99.90;;;;;;5069333;28;20207;-86
2022/04/09 07:52:27;;;;;;;10.45;6.60;;;3.50;99.90;;;;;;5069846;28;20548;-87
2022/04/09 07:54:57;;;;;;;7.90;6.57;;;3.50;99.90;;;;;;5069198;28;20245;-88
2022/04/09 07:57:24;;;;;;;11.27;7.65;;;3.50;99.90;;;;;;5069011;28;20246;-86
2022/04/09 07:59:55;;;;;;;9.40;6.60;;;3.50;99.90;;;;;;5069748;28;20215;-87
2022/04/09 08:02:22;;;;;;;11.90;7.32;;;3.60;99.90;;;;;;5069420;28;20231;-86
2022/04/09 08:04:49;;;;;;;8.70;6.85;;;3.50;99.90;;;;;;5069042;28;20256;-85
2022/04/09 08:07:16;;;;;;;9.40;8.45;;;4.60;99.90;;;;;;5068459;28;20211;-86
2022/04/09 08:09:44;;;;;;;11.02;6.63;;;3.50;99.90;;;;;;5069164;28;20290;-87
2022/04/09 08:12:12;;;;;;;8.25;6.50;;;3.50;99.90;;;;;;5069406;28;20203;-86
2022/04/09 08:14:39;;;;;;;7.47;5.70;;;3.40;99.90;;;;;;5069239;28;20218;-86
2022/04/09 08:17:08;;;;;;;14.30;7.20;;;3.50;99.90;;;;;;5068558;28;20268;-86
2022/04/09 08:19:35;;;;;;;8.90;6.93;;;3.60;99.90;;;;;;5068734;28;20318;-86
2022/04/09 08:22:02;;;;;;;11.63;5.90;;;3.60;99.90;;;;;;5068986;28;20243;-85
2022/04/09 08:24:29;;;;;;;10.30;5.60;;;3.60;99.90;;;;;;5069398;28;20214;-85
2022/04/09 08:26:56;;;;;;;10.80;5.95;;;3.70;99.90;;;;;;5067449;28;20735;-86
2022/04/09 08:29:24;;;;;;;8.73;6.63;;;4.50;99.90;;;;;;5069223;28;20248;-86
2022/04/09 08:31:52;;;;;;;7.82;6.25;;;3.60;99.90;;;;;;5069098;28;20588;-85
2022/04/09 08:34:21;;;;;;;11.88;7.68;;;3.70;99.90;;;;;;5067946;28;20645;-86
2022/04/09 08:36:49;;;;;;;10.27;5.60;;;3.70;99.90;;;;;;5068040;28;20268;-86
2022/04/09 08:39:16;;;;;;;8.95;5.20;;;3.60;99.90;;;;;;5068743;28;20284;-86
2022/04/09 08:41:45;;;;;;;6.03;5.25;;;3.60;99.90;;;;;;5051529;28;20287;-85
2022/04/09 08:44:12;;;;;;;6.95;6.32;;;3.70;99.90;;;;;;5048884;28;20203;-86
2022/04/09 08:46:40;;;;;;;9.30;6.55;;;3.70;99.90;;;;;;5048498;28;20211;-86
2022/04/09 08:49:08;;;;;;;5.15;4.65;;;3.80;99.90;;;;;;5048253;28;20208;-85
2022/04/09 08:51:37;;;;;;;7.78;5.82;;;3.90;99.90;;;;;;5048831;28;20220;-86
2022/04/09 08:54:05;;;;;;;6.57;5.28;;;3.90;99.90;;;;;;5048857;28;20262;-86
2022/04/09 08:56:33;;;;;;;7.63;5.28;;;3.90;99.90;;;;;;5048044;28;20307;-86
2022/04/09 08:59:01;;;;;;;6.53;5.00;;;3.80;99.90;;;;;;5048604;28;20268;-85
2022/04/09 09:01:29;;;;;;;6.68;4.82;;;3.70;99.90;;;;;;5048480;28;20208;-86
2022/04/09 09:03:57;;;;;;;5.85;5.22;;;3.80;99.90;;;;;;5052732;28;20207;-86
2022/04/09 09:06:27;;;;;;;6.07;4.20;;;3.80;99.90;;;;;;5068313;28;20298;-85
2022/04/09 09:08:56;;;;;;;7.72;5.72;;;3.80;99.90;;;;;;5068796;28;20203;-85
2022/04/09 09:11:24;;;;;;;10.10;5.55;;;3.90;99.90;;;;;;5068711;28;20298;-85
2022/04/09 09:13:52;;;;;;;9.25;5.30;;;4.00;99.90;;;;;;5068674;28;20210;-86
2022/04/09 09:16:25;;;;;;;8.00;5.70;;;4.00;99.90;;;;;;5067606;28;20261;-85
2022/04/09 09:18:53;;;;;;;8.35;5.25;;;4.10;99.90;;;;;;5068571;28;20650;-85
2022/04/09 09:21:23;;;;;;;13.25;5.18;;;4.10;99.90;;;;;;5068813;28;20271;-85
2022/04/09 09:23:50;;;;;;;10.00;5.35;;;4.10;99.90;;;;;;5068329;28;20294;-84
2022/04/09 09:26:23;;;;;;;8.95;5.03;;;4.20;99.90;;;;;;5067738;28;20211;-85
2022/04/09 09:28:57;;;;;;;4.45;4.00;;;4.40;99.90;;;;;;5068664;28;20199;-85
2022/04/09 09:31:41;;;;;;;8.50;4.90;;;4.40;99.90;;;;;;5068658;28;20207;-85
2022/04/09 09:34:09;;;;;;;14.15;4.82;;;4.40;99.90;;;;;;5067236;28;20215;-85
2022/04/09 09:36:38;;;;;;;6.05;4.93;;;4.50;99.90;;;;;;5068042;28;20213;-85
2022/04/09 09:39:06;;;;;;;4.88;4.47;;;4.50;99.90;;;;;;5070062;28;20264;-85
2022/04/09 09:41:36;;;;;;;12.30;5.57;;;4.50;99.90;;;;;;5056257;28;20204;-85
2022/04/09 09:44:04;;;;;;;11.30;6.63;;;4.60;99.90;;;;;;5052198;28;20377;-85
2022/04/09 09:46:31;;;;;;;8.40;5.72;;;4.70;99.90;;;;;;5051804;28;20231;-85
2022/04/09 09:48:59;;;;;;;6.25;4.97;;;4.90;99.90;;;;;;5051899;28;20206;-85
2022/04/09 09:51:27;;;;;;;7.53;5.65;;;4.80;99.90;;;;;;5051801;28;20204;-85
2022/04/09 09:54:05;;;;;;;5.47;3.90;;;4.80;99.90;;;;;;5052354;28;20216;-85
2022/04/09 09:56:38;;;;;;;7.53;5.57;;;5.20;99.90;;;;;;5051656;28;20207;-85
2022/04/09 09:59:06;;;;;;;5.40;4.63;;;5.10;99.90;;;;;;5051969;28;20227;-86
2022/04/09 10:01:37;;;;;;;4.90;4.47;;;5.40;99.90;;;;;;5052069;28;20218;-86
2022/04/09 10:04:05;;;;;;;6.47;5.07;;;5.40;99.90;;;;;;5057165;28;20581;-85
2022/04/09 10:06:33;;;;;;;8.20;4.35;;;5.40;99.90;;;;;;5071167;28;20214;-86
2022/04/09 10:09:00;;;;;;;6.82;4.05;;;5.70;99.90;;;;;;5071795;28;20207;-86
2022/04/09 10:11:28;;;;;;;6.63;3.90;;;5.50;99.90;;;;;;5071841;28;20296;-86
2022/04/09 10:13:58;;;;;;;8.70;3.90;;;5.80;99.90;;;;;;5071788;28;20211;-85
2022/04/09 10:16:28;;;;;;;5.20;4.70;;;5.90;99.80;;;;;;5070767;28;20261;-86
2022/04/09 10:19:00;;;;;;;6.07;5.50;;;5.90;99.60;;;;;;5071945;28;20647;-85
2022/04/09 10:21:28;;;;;;;6.15;4.88;;;6.00;99.40;;;;;;5071775;28;20215;-85
2022/04/09 10:23:57;;;;;;;4.25;3.83;;;5.90;98.80;;;;;;5071768;28;20207;-86
2022/04/09 10:26:25;;;;;;;4.90;3.22;;;6.10;98.40;;;;;;5071492;28;20681;-85
2022/04/09 10:28:52;;;;;;;6.88;3.80;;;6.00;96.80;;;;;;5072311;28;20563;-85
2022/04/09 10:31:37;;;;;;;5.03;3.65;;;5.90;97.30;;;;;;5071176;28;20207;-84
2022/04/09 10:34:07;;;;;;;5.38;3.67;;;5.80;97.10;;;;;;5070677;28;20219;-84
2022/04/09 10:37:03;;;;;;;9.98;3.28;;;5.60;96.70;;;;;;5070473;28;20211;-84
2022/04/09 10:39:46;;;;;;;5.10;3.50;;;5.30;96.00;;;;;;5070617;28;20831;-83
2022/04/09 10:42:48;;;;;;;6.00;3.42;;;5.30;97.00;;;;;;5050224;28;20223;-83
2022/04/09 10:45:15;;;;;;;4.97;3.22;;;5.40;96.10;;;;;;5048654;28;20211;-83
2022/04/09 10:48:10;;;;;;;4.50;3.40;;;5.40;97.70;;;;;;5050547;28;20290;-83
2022/04/09 10:50:59;;;;;;;4.97;3.10;;;5.90;97.40;;;;;;5049416;28;20215;-84
2022/04/09 10:53:27;;;;;;;6.53;4.03;;;5.90;96.70;;;;;;5050671;28;20204;-83
2022/04/09 10:56:20;;;;;;;3.80;3.15;;;5.70;96.40;;;;;;5050154;28;20737;-83
2022/04/09 10:59:09;;;;;;;7.57;3.83;;;6.00;95.80;;;;;;5050535;28;20761;-83
2022/04/09 11:01:55;;;;;;;3.90;3.15;;;6.10;95.50;;;;;;5050648;28;20212;-83
2022/04/09 11:04:43;;;;;;;5.53;3.85;;;6.40;95.70;;;;;;5058051;28;20203;-83
2022/04/09 11:07:12;;;;;;;8.82;4.95;;;6.80;95.60;;;;;;5069989;28;20203;-83
2022/04/09 11:09:53;;;;;;;4.47;2.33;;;6.80;92.50;;;;;;5069223;28;20207;-84
2022/04/09 11:12:24;;;;;;;4.55;2.65;;;7.00;92.70;;;;;;5070389;28;20254;-83
2022/04/09 11:14:52;;;;;;;5.25;3.33;;;7.00;93.00;;;;;;5069947;28;20681;-84
2022/04/09 11:17:31;;;;;;;3.67;3.30;;;7.10;92.60;;;;;;5069670;28;20615;-83
2022/04/09 11:20:04;;;;;;;3.17;2.60;;;7.10;92.20;;;;;;5069831;28;20736;-83
2022/04/09 11:22:33;;;;;;;8.40;4.35;;;7.20;91.60;;;;;;5069994;28;20307;-83
2022/04/09 11:25:00;;;;;;;4.10;3.17;;;7.30;91.80;;;;;;5070620;28;20212;-83
2022/04/09 11:27:28;;;;;;;3.83;3.53;;;7.30;92.20;;;;;;5069038;28;20327;-83
2022/04/09 11:29:55;;;;;;;2.70;2.50;;;7.50;92.30;;;;;;5070033;28;20204;-83
2022/04/09 11:32:23;;;;;;;7.40;3.03;;;7.40;92.30;;;;;;5069914;28;20208;-83
2022/04/09 11:34:52;;;;;;;3.83;2.55;;;7.60;92.00;;;;;;5068873;28;20352;-83
2022/04/09 11:37:21;;;;;;;4.00;3.25;;;8.00;92.30;;;;;;5069434;28;20297;-83
2022/04/09 11:39:49;;;;;;;5.85;3.17;;;8.00;92.20;;;;;;5069544;28;20279;-83
2022/04/09 11:42:17;;;;;;;5.32;3.60;;;7.90;92.20;;;;;;5069928;28;20301;-83
2022/04/09 11:44:44;;;;;;;4.45;3.55;;;7.60;91.20;;;;;;5069469;28;20213;-83
2022/04/09 11:47:13;;;;;;;4.10;2.80;;;7.70;93.00;;;;;;5069113;28;20205;-83
2022/04/09 11:49:41;;;;;;;5.65;2.60;;;7.50;91.30;;;;;;5069295;28;20277;-83
2022/04/09 11:52:09;;;;;;;4.45;3.47;;;7.50;91.30;;;;;;5069275;28;20220;-83
2022/04/09 11:54:43;;;;;;;3.10;2.60;;;7.30;91.10;;;;;;5069368;28;20220;-83
2022/04/09 11:57:13;;;;;;;3.07;2.83;;;7.80;90.40;;;;;;5068792;28;20632;-83
2022/04/09 11:59:41;;;;;;;5.73;2.77;;;8.30;90.50;;;;;;5069563;28;20649;-83
2022/04/09 12:02:22;;;;;;;3.33;2.43;;;8.20;90.20;;;;;;5069320;28;20700;-83
2022/04/09 12:04:49;;;;;;;3.50;2.10;;;8.50;84.90;;;;;;5057515;28;20687;-83
2022/04/09 12:07:17;;;;;;;2.93;2.63;;;7.80;83.40;;;;;;5048704;28;20657;-83
2022/04/09 12:09:45;;;;;;;4.00;2.90;;;7.60;86.20;;;;;;5049659;28;20687;-83
2022/04/09 12:12:12;;;;;;;4.03;2.70;;;7.30;85.60;;;;;;5049353;28;20606;-83
2022/04/09 12:14:41;;;;;;;5.07;2.77;;;7.30;87.60;;;;;;5049497;28;20650;-83
2022/04/09 12:17:12;;;;;;;3.27;2.80;;;7.30;87.60;;;;;;5048462;28;21042;-83
2022/04/09 12:19:43;;;;;;;3.35;2.25;;;7.40;85.60;;;;;;5048829;28;21520;-83
2022/04/09 12:22:19;;;;;;;3.63;2.50;;;7.60;86.40;;;;;;5049302;28;20215;-83
2022/04/09 12:24:52;;;;;;;3.73;2.93;;;7.60;86.40;;;;;;5049226;28;21163;-83
2022/04/09 12:27:20;;;;;;;4.20;2.65;;;7.60;87.20;;;;;;5048232;28;20612;-83
2022/04/09 12:29:52;;;;;;;2.83;2.25;;;7.70;82.40;;;;;;5049035;28;20305;-83
2022/04/09 12:32:23;;;;;;;5.75;2.40;;;7.80;84.80;;;;;;5049383;28;20269;-84
2022/04/09 12:34:58;;;;;;;3.55;2.90;;;7.60;83.60;;;;;;5048004;28;20219;-83
2022/04/09 12:37:26;;;;;;;5.70;2.50;;;7.70;84.90;;;;;;5048454;28;20209;-83
2022/04/09 12:40:12;;;;;;;6.78;3.00;;;7.70;85.10;;;;;;5050642;28;21248;-83
2022/04/09 12:42:39;;;;;;;3.35;2.00;;;8.00;88.60;;;;;;5069225;28;20210;-83
2022/04/09 12:45:11;;;;;;;6.18;2.55;;;8.20;82.80;;;;;;5068445;28;20704;-83
2022/04/09 12:47:38;;;;;;;5.50;3.10;;;8.60;85.00;;;;;;5068865;28;20304;-83
2022/04/09 12:50:06;;;;;;;6.45;2.90;;;8.70;80.80;;;;;;5069010;28;20234;-83
2022/04/09 12:52:33;;;;;;;3.33;2.70;;;8.80;78.80;;;;;;5068558;28;20212;-83
2022/04/09 12:55:02;;;;;;;3.25;2.15;;;8.40;79.80;;;;;;5068845;28;20613;-83
2022/04/09 12:57:29;;;;;;;4.63;2.90;;;8.10;83.50;;;;;;5069107;28;20740;-83
2022/04/09 12:59:56;;;;;;;5.40;2.72;;;7.80;82.20;;;;;;5068720;28;20743;-83
2022/04/09 13:02:23;;;;;;;6.50;2.73;;;7.60;83.70;;;;;;5068939;28;20216;-83
2022/04/09 13:04:50;;;;;;;6.67;3.20;;;8.30;83.30;;;;;;5068634;28;20632;-83
2022/04/09 13:07:17;;;;;;;2.93;2.57;;;9.70;81.00;;;;;;5067719;28;20703;-83
2022/04/09 13:09:44;;;;;;;4.83;2.37;;;11.30;77.30;;;;;;5068497;28;21544;-83